Impacts TAF Board
For situational awareness. Not to be used for flight planning purposes.
IDs:

KMDW - Chicago/Midway Intl, IL, US

Issued at 2046 UTC 20 Nov 2018
Updated at 2140 UTC 20 Nov 2018
Potential Impact None Slight Moderate High
Time<<21/22Z 21/23Z 22/00Z 22/01Z 22/02Z 22/03Z 22/04Z 22/05Z 22/06Z 22/07Z 22/08Z 22/09Z 22/10Z
Type PRVL PRVL
VIS >6 >6
CIG 20 20
Cover BKN BKN
FltCat MVFR MVFR
WX -- --
WDir 20 20
WSpd 10 10
WGst -- --
Raw TAF
KMDW 202046Z 2021/2124 25014G22KT P6SM SCT030
  FM210000 24015G24KT P6SM SCT030 BKN060
  TEMPO 2100/2102 BKN030
  FM210900 29008KT P6SM SCT030 BKN060
  FM211900 02010KT P6SM BKN020


METAR Board
Radar Display
Forecast Discussion
For situational awareness. Not to be used for flight planning purposes.